Time;durP1;ratioP1;P1;durP2;ratioP2;P2;SDS_P1;SDS_P2;PMS_P1;PMS_P2;Temp;Humidity;BMP_temperature;BMP_pressure;BME280_temperature;BME280_humidity;BME280_pressure;Samples;Min_cycle;Max_cycle;Signal;HPM_P1;HPM_P2
2022/12/13 00:00:24;;;;;;;;;;;;;;;;;;1047642;28;2409;-58
2022/12/13 00:01:15;;;;;;;;;;;;;;;;;;1043838;28;2578;-59
2022/12/13 00:01:47;;;;;;;;;;;;;;;;;;1045601;28;2077;-59
2022/12/13 00:02:24;;;;;;;;;;;;;;;;;;1045332;28;2026;-58
2022/12/13 00:02:55;;;;;;;;;;;;;;;;;;1049221;28;2368;-58
2022/12/13 00:03:25;;;;;;;;;;;;;;;;;;1048010;28;1806;-59
2022/12/13 00:03:56;;;;;;;;;;;;;;;;;;1045286;28;2616;-59
2022/12/13 00:04:26;;;;;;;;;;;;;;;;;;1045286;28;2352;-60
2022/12/13 00:04:57;;;;;;;;;;;;;;;;;;1044974;28;1995;-57
2022/12/13 00:05:27;;;;;;;;;;;;;;;;;;1047786;28;2340;-57
2022/12/13 00:05:57;;;;;;;;;;;;;;;;;;1048700;28;2554;-60
2022/12/13 00:06:27;;;;;;;;;;;;;;;;;;1050545;28;1850;-60
2022/12/13 00:06:58;;;;;;;;;;;;;;;;;;1043466;28;2485;-58
2022/12/13 00:07:28;;;;;;;;;;;;;;;;;;1046050;28;1597;-60
2022/12/13 00:07:58;;;;;;;;;;;;;;;;;;1044110;28;2577;-58
2022/12/13 00:08:29;;;;;;;;;;;;;;;;;;1046148;28;2378;-60
2022/12/13 00:08:59;;;;;;;;;;;;;;;;;;1049059;28;2233;-56
2022/12/13 00:09:29;;;;;;;;;;;;;;;;;;1050139;28;2099;-60
2022/12/13 00:10:00;;;;;;;;;;;;;;;;;;1049871;28;2012;-59
2022/12/13 00:10:43;;;;;;;;;;;;;;;;;;1043991;28;2534;-58
2022/12/13 00:11:20;;;;;;;;;;;;;;;;;;1044674;28;3506;-60
2022/12/13 00:11:51;;;;;;;;;;;;;;;;;;1044484;28;3057;-59
2022/12/13 00:12:21;;;;;;;;;;;;;;;;;;1044441;28;2418;-59
2022/12/13 00:12:51;;;;;;;;;;;;;;;;;;1043578;28;2132;-59
2022/12/13 00:13:21;;;;;;;;;;;;;;;;;;1044864;28;2982;-58
2022/12/13 00:13:52;;;;;;;;;;;;;;;;;;1045380;28;2199;-57
2022/12/13 00:14:23;;;;;;;;;;;;;;;;;;1044816;28;2940;-59
2022/12/13 00:14:53;;;;;;;;;;;;;;;;;;1042847;28;2470;-58
2022/12/13 00:15:23;;;;;;;;;;;;;;;;;;1043543;28;2435;-60
2022/12/13 00:16:02;;;;;;;;;;;;;;;;;;1043823;28;2502;-58
2022/12/13 00:16:32;;;;;;;;;;;;;;;;;;1043405;28;2490;-59
2022/12/13 00:17:02;;;;;;;;;;;;;;;;;;1044492;28;2504;-57
2022/12/13 00:17:33;;;;;;;;;;;;;;;;;;1044974;28;2320;-59
2022/12/13 00:18:03;;;;;;;;;;;;;;;;;;1045157;28;2261;-60
2022/12/13 00:18:33;;;;;;;;;;;;;;;;;;1045083;28;2067;-57
2022/12/13 00:19:04;;;;;;;;;;;;;;;;;;1045595;28;2398;-59
2022/12/13 00:19:34;;;;;;;;;;;;;;;;;;1044662;28;2471;-59
2022/12/13 00:20:04;;;;;;;;;;;;;;;;;;1043124;28;2286;-58
2022/12/13 00:20:38;;;;;;;;;;;;;;;;;;1044267;28;1993;-60
2022/12/13 00:21:11;;;;;;;;;;;;;;;;;;1043499;28;2340;-57
2022/12/13 00:21:42;;;;;;;;;;;;;;;;;;1045397;28;2100;-59
2022/12/13 00:22:13;;;;;;;;;;;;;;;;;;1048378;28;1908;-58
2022/12/13 00:22:43;;;;;;;;;;;;;;;;;;1044999;28;2308;-59
2022/12/13 00:23:13;;;;;;;;;;;;;;;;;;1044425;28;2792;-59
2022/12/13 00:23:44;;;;;;;;;;;;;;;;;;1045595;28;2091;-60
2022/12/13 00:24:14;;;;;;;;;;;;;;;;;;1044907;28;2712;-59
2022/12/13 00:24:45;;;;;;;;;;;;;;;;;;1044701;28;3812;-59
2022/12/13 00:25:18;;;;;;;;;;;;;;;;;;1045156;28;2237;-58
2022/12/13 00:25:48;;;;;;;;;;;;;;;;;;1047149;28;1647;-59
2022/12/13 00:26:20;;;;;;;;;;;;;;;;;;1046176;28;2253;-59
2022/12/13 00:26:53;;;;;;;;;;;;;;;;;;1045976;28;2254;-59
2022/12/13 00:27:23;;;;;;;;;;;;;;;;;;1045098;28;2457;-58
2022/12/13 00:27:53;;;;;;;;;;;;;;;;;;1044271;28;2627;-58
2022/12/13 00:28:24;;;;;;;;;;;;;;;;;;1044664;28;2016;-60
2022/12/13 00:28:54;;;;;;;;;;;;;;;;;;1045171;28;2569;-60
2022/12/13 00:29:24;;;;;;;;;;;;;;;;;;1042312;28;2792;-59
2022/12/13 00:29:54;;;;;;;;;;;;;;;;;;1042960;28;2349;-59
2022/12/13 00:30:25;;;;;;;;;;;;;;;;;;1043833;28;3061;-59
2022/12/13 00:30:56;;;;;;;;;;;;;;;;;;1047496;28;2286;-59
2022/12/13 00:31:26;;;;;;;;;;;;;;;;;;1044654;28;2532;-57
2022/12/13 00:31:57;;;;;;;;;;;;;;;;;;1045192;28;2092;-59
2022/12/13 00:32:27;;;;;;;;;;;;;;;;;;1045503;28;2558;-58
2022/12/13 00:32:57;;;;;;;;;;;;;;;;;;1047115;28;1616;-58
2022/12/13 00:33:28;;;;;;;;;;;;;;;;;;1045603;28;2274;-59
2022/12/13 00:33:59;;;;;;;;;;;;;;;;;;1043985;28;2599;-56
2022/12/13 00:34:29;;;;;;;;;;;;;;;;;;1044395;28;2441;-58
2022/12/13 00:34:59;;;;;;;;;;;;;;;;;;1044837;28;2509;-59
2022/12/13 00:35:29;;;;;;;;;;;;;;;;;;1045727;28;2411;-59
2022/12/13 00:36:01;;;;;;;;;;;;;;;;;;1045049;28;1698;-57
2022/12/13 00:36:32;;;;;;;;;;;;;;;;;;1044938;28;2832;-57
2022/12/13 00:37:02;;;;;;;;;;;;;;;;;;1046069;28;1675;-58
2022/12/13 00:37:32;;;;;;;;;;;;;;;;;;1047619;28;2367;-58
2022/12/13 00:38:02;;;;;;;;;;;;;;;;;;1046296;28;2139;-59
2022/12/13 00:38:34;;;;;;;;;;;;;;;;;;1045029;28;2336;-59
2022/12/13 00:39:04;;;;;;;;;;;;;;;;;;1044097;28;2932;-59
2022/12/13 00:39:34;;;;;;;;;;;;;;;;;;1046008;28;2727;-59
2022/12/13 00:40:05;;;;;;;;;;;;;;;;;;1045304;28;3094;-56
2022/12/13 00:40:35;;;;;;;;;;;;;;;;;;1043580;28;2457;-59
2022/12/13 00:41:16;;;;;;;;;;;;;;;;;;1045359;28;2435;-58
2022/12/13 00:41:46;;;;;;;;;;;;;;;;;;1044311;28;2306;-59
2022/12/13 00:42:17;;;;;;;;;;;;;;;;;;1044932;28;2313;-59
2022/12/13 00:42:47;;;;;;;;;;;;;;;;;;1047163;28;2226;-58
2022/12/13 00:43:18;;;;;;;;;;;;;;;;;;1044930;28;2503;-60
2022/12/13 00:43:48;;;;;;;;;;;;;;;;;;1045413;28;2581;-59
2022/12/13 00:44:18;;;;;;;;;;;;;;;;;;1045301;28;2038;-59
2022/12/13 00:44:49;;;;;;;;;;;;;;;;;;1046094;28;2368;-59
2022/12/13 00:45:19;;;;;;;;;;;;;;;;;;1044694;28;2574;-60
2022/12/13 00:45:49;;;;;;;;;;;;;;;;;;1044007;28;2500;-57
2022/12/13 00:46:22;;;;;;;;;;;;;;;;;;1044565;28;2304;-59
2022/12/13 00:46:53;;;;;;;;;;;;;;;;;;1047441;28;2075;-58
2022/12/13 00:47:23;;;;;;;;;;;;;;;;;;1047545;28;2486;-58
2022/12/13 00:47:53;;;;;;;;;;;;;;;;;;1046512;28;1940;-58
2022/12/13 00:48:24;;;;;;;;;;;;;;;;;;1048622;28;2009;-57
2022/12/13 00:48:55;;;;;;;;;;;;;;;;;;1046697;28;2510;-58
2022/12/13 00:49:32;;;;;;;;;;;;;;;;;;1045325;28;2019;-59
2022/12/13 00:50:03;;;;;;;;;;;;;;;;;;1046338;28;2371;-59
2022/12/13 00:50:33;;;;;;;;;;;;;;;;;;1045896;28;1798;-58
2022/12/13 00:51:07;;;;;;;;;;;;;;;;;;1050255;28;1952;-59
2022/12/13 00:51:37;;;;;;;;;;;;;;;;;;1046007;28;2020;-60
2022/12/13 00:52:07;;;;;;;;;;;;;;;;;;1046384;28;2587;-58
2022/12/13 00:52:38;;;;;;;;;;;;;;;;;;1046159;28;1782;-60
2022/12/13 00:53:08;;;;;;;;;;;;;;;;;;1043005;28;2828;-59
2022/12/13 00:53:38;;;;;;;;;;;;;;;;;;1041009;28;2283;-59
2022/12/13 00:54:08;;;;;;;;;;;;;;;;;;1041785;28;2060;-58
2022/12/13 00:54:45;;;;;;;;;;;;;;;;;;1043140;28;2459;-59
2022/12/13 00:55:16;;;;;;;;;;;;;;;;;;1045105;28;2355;-58
2022/12/13 00:55:46;;;;;;;;;;;;;;;;;;1047016;28;2517;-57
2022/12/13 00:56:18;;;;;;;;;;;;;;;;;;1046688;28;1787;-59
2022/12/13 00:56:50;;;;;;;;;;;;;;;;;;1047006;28;2247;-60
2022/12/13 00:57:20;;;;;;;;;;;;;;;;;;1046786;28;2831;-60
2022/12/13 00:57:51;;;;;;;;;;;;;;;;;;1046572;28;2078;-57
2022/12/13 00:58:21;;;;;;;;;;;;;;;;;;1046214;28;1758;-59
2022/12/13 00:58:52;;;;;;;;;;;;;;;;;;1044750;28;2842;-59
2022/12/13 00:59:22;;;;;;;;;;;;;;;;;;1043393;28;2950;-58
2022/12/13 00:59:52;;;;;;;;;;;;;;;;;;1043094;28;2501;-59
2022/12/13 01:00:24;;;;;;;;;;;;;;;;;;1043413;28;2434;-58
2022/12/13 01:01:01;;;;;;;;;;;;;;;;;;1043428;28;2957;-60
2022/12/13 01:01:32;;;;;;;;;;;;;;;;;;1045489;28;2091;-57
2022/12/13 01:02:02;;;;;;;;;;;;;;;;;;1043623;28;2442;-56
2022/12/13 01:02:33;;;;;;;;;;;;;;;;;;1043806;28;3012;-59
2022/12/13 01:03:19;;;;;;;;;;;;;;;;;;1044952;28;2404;-58
2022/12/13 01:03:49;;;;;;;;;;;;;;;;;;1043820;28;2388;-59
2022/12/13 01:04:20;;;;;;;;;;;;;;;;;;1046155;28;2407;-59
2022/12/13 01:04:50;;;;;;;;;;;;;;;;;;1044567;28;2734;-60
2022/12/13 01:05:20;;;;;;;;;;;;;;;;;;1044893;28;2489;-59
2022/12/13 01:05:50;;;;;;;;;;;;;;;;;;1046491;28;2969;-59
2022/12/13 01:06:24;;;;;;;;;;;;;;;;;;1043764;28;2657;-60
2022/12/13 01:06:54;;;;;;;;;;;;;;;;;;1044093;28;2996;-58
2022/12/13 01:07:24;;;;;;;;;;;;;;;;;;1044266;28;2667;-58
2022/12/13 01:07:54;;;;;;;;;;;;;;;;;;1046245;28;2481;-57
2022/12/13 01:08:25;;;;;;;;;;;;;;;;;;1043115;28;2957;-59
2022/12/13 01:08:55;;;;;;;;;;;;;;;;;;1043103;28;3327;-59
2022/12/13 01:09:28;;;;;;;;;;;;;;;;;;1045320;28;2649;-58
2022/12/13 01:09:58;;;;;;;;;;;;;;;;;;1044639;28;2578;-59
2022/12/13 01:10:42;;;;;;;;;;;;;;;;;;1044092;28;2588;-58
2022/12/13 01:11:19;;;;;;;;;;;;;;;;;;1049719;28;2529;-59
2022/12/13 01:11:49;;;;;;;;;;;;;;;;;;1047002;28;2449;-59
2022/12/13 01:12:20;;;;;;;;;;;;;;;;;;1049340;28;2462;-57
2022/12/13 01:12:50;;;;;;;;;;;;;;;;;;1048298;28;2427;-59
2022/12/13 01:13:20;;;;;;;;;;;;;;;;;;1049164;28;2201;-60
2022/12/13 01:13:51;;;;;;;;;;;;;;;;;;1048079;28;2362;-58
2022/12/13 01:14:21;;;;;;;;;;;;;;;;;;1045934;28;2353;-58
2022/12/13 01:14:51;;;;;;;;;;;;;;;;;;1045787;28;2406;-59
2022/12/13 01:15:21;;;;;;;;;;;;;;;;;;1044167;28;2902;-59
2022/12/13 01:15:52;;;;;;;;;;;;;;;;;;1045792;28;2044;-59
2022/12/13 01:16:22;;;;;;;;;;;;;;;;;;1048997;28;2543;-58
2022/12/13 01:16:55;;;;;;;;;;;;;;;;;;1048899;28;2453;-59
2022/12/13 01:17:26;;;;;;;;;;;;;;;;;;1050051;28;2632;-58
2022/12/13 01:17:56;;;;;;;;;;;;;;;;;;1051741;28;2339;-59
2022/12/13 01:18:26;;;;;;;;;;;;;;;;;;1050181;28;2958;-59
2022/12/13 01:18:57;;;;;;;;;;;;;;;;;;1050115;28;2160;-58
2022/12/13 01:19:27;;;;;;;;;;;;;;;;;;1047540;28;2564;-57
2022/12/13 01:19:58;;;;;;;;;;;;;;;;;;1051615;28;2727;-57
2022/12/13 01:20:28;;;;;;;;;;;;;;;;;;1049032;28;2407;-59
2022/12/13 01:20:59;;;;;;;;;;;;;;;;;;1051806;28;2535;-58
2022/12/13 01:21:30;;;;;;;;;;;;;;;;;;1050256;28;2119;-60
2022/12/13 01:22:02;;;;;;;;;;;;;;;;;;1050691;28;1389;-59
2022/12/13 01:22:32;;;;;;;;;;;;;;;;;;1050021;28;2703;-59
2022/12/13 01:23:02;;;;;;;;;;;;;;;;;;1051377;28;2418;-56
2022/12/13 01:23:33;;;;;;;;;;;;;;;;;;1046601;28;1774;-57
2022/12/13 01:24:04;;;;;;;;;;;;;;;;;;1046757;28;2320;-57
2022/12/13 01:24:34;;;;;;;;;;;;;;;;;;1048386;28;2029;-58
2022/12/13 01:25:05;;;;;;;;;;;;;;;;;;1047205;28;2151;-59
2022/12/13 01:25:36;;;;;;;;;;;;;;;;;;1050184;28;1818;-60
2022/12/13 01:26:08;;;;;;;;;;;;;;;;;;1050923;28;2452;-59
2022/12/13 01:26:38;;;;;;;;;;;;;;;;;;1048826;28;3023;-60
2022/12/13 01:27:09;;;;;;;;;;;;;;;;;;1047998;28;2390;-60
2022/12/13 01:27:39;;;;;;;;;;;;;;;;;;1048134;28;1744;-59
2022/12/13 01:28:09;;;;;;;;;;;;;;;;;;1051438;28;2344;-59
2022/12/13 01:28:39;;;;;;;;;;;;;;;;;;1051276;28;1833;-59
2022/12/13 01:29:10;;;;;;;;;;;;;;;;;;1050520;28;2600;-58
2022/12/13 01:29:40;;;;;;;;;;;;;;;;;;1048844;28;2606;-57
2022/12/13 01:30:10;;;;;;;;;;;;;;;;;;1048735;28;2367;-57
2022/12/13 01:30:41;;;;;;;;;;;;;;;;;;1051974;28;2653;-58
2022/12/13 01:31:15;;;;;;;;;;;;;;;;;;1050145;28;2835;-58
2022/12/13 01:31:46;;;;;;;;;;;;;;;;;;1051383;28;1580;-57
2022/12/13 01:32:16;;;;;;;;;;;;;;;;;;1043516;28;2386;-59
2022/12/13 01:32:46;;;;;;;;;;;;;;;;;;1045778;28;2333;-58
2022/12/13 01:33:16;;;;;;;;;;;;;;;;;;1044830;28;2817;-59
2022/12/13 01:33:47;;;;;;;;;;;;;;;;;;1041212;28;2402;-60
2022/12/13 01:34:18;;;;;;;;;;;;;;;;;;1045343;28;2440;-59
2022/12/13 01:34:49;;;;;;;;;;;;;;;;;;1041103;28;2415;-58
2022/12/13 01:35:19;;;;;;;;;;;;;;;;;;1042131;28;2418;-57
2022/12/13 01:35:49;;;;;;;;;;;;;;;;;;1046877;28;2951;-59
2022/12/13 01:36:20;;;;;;;;;;;;;;;;;;1044249;28;2479;-58
2022/12/13 01:36:51;;;;;;;;;;;;;;;;;;1050989;28;2032;-58
2022/12/13 01:37:21;;;;;;;;;;;;;;;;;;1048578;28;2328;-58
2022/12/13 01:37:51;;;;;;;;;;;;;;;;;;1048839;28;2618;-58
2022/12/13 01:38:21;;;;;;;;;;;;;;;;;;1049542;28;2582;-57
2022/12/13 01:38:51;;;;;;;;;;;;;;;;;;1049985;28;2045;-60
2022/12/13 01:39:22;;;;;;;;;;;;;;;;;;1050530;28;2235;-59
2022/12/13 01:39:52;;;;;;;;;;;;;;;;;;1043906;28;1717;-56
2022/12/13 01:40:22;;;;;;;;;;;;;;;;;;1045780;28;2295;-59
2022/12/13 01:40:56;;;;;;;;;;;;;;;;;;1047076;28;1901;-59
2022/12/13 01:41:27;;;;;;;;;;;;;;;;;;1045843;28;2960;-57
2022/12/13 01:42:02;;;;;;;;;;;;;;;;;;1049802;28;2321;-59
2022/12/13 01:42:32;;;;;;;;;;;;;;;;;;1051245;28;1323;-59
2022/12/13 01:43:04;;;;;;;;;;;;;;;;;;1051032;28;1660;-57
2022/12/13 01:43:40;;;;;;;;;;;;;;;;;;1050039;28;2761;-59
2022/12/13 01:44:29;;;;;;;;;;;;;;;;;;1050540;28;2567;-54
2022/12/13 01:45:05;;;;;;;;;;;;;;;;;;1049834;28;1660;-58
2022/12/13 01:45:35;;;;;;;;;;;;;;;;;;1050313;28;2343;-59
2022/12/13 01:46:05;;;;;;;;;;;;;;;;;;1051515;28;2614;-58
2022/12/13 01:46:35;;;;;;;;;;;;;;;;;;1049326;28;1971;-59
2022/12/13 01:47:06;;;;;;;;;;;;;;;;;;1051544;28;1675;-60
2022/12/13 01:47:39;;;;;;;;;;;;;;;;;;1051645;28;1610;-60
2022/12/13 01:48:15;;;;;;;;;;;;;;;;;;1049771;28;1643;-60
2022/12/13 01:48:51;;;;;;;;;;;;;;;;;;1051173;28;1693;-58
2022/12/13 01:49:22;;;;;;;;;;;;;;;;;;1051125;28;2163;-58
2022/12/13 01:49:53;;;;;;;;;;;;;;;;;;1051459;28;2071;-60
2022/12/13 01:50:26;;;;;;;;;;;;;;;;;;1049303;28;2371;-59
2022/12/13 01:50:59;;;;;;;;;;;;;;;;;;1049702;28;2059;-59
2022/12/13 01:51:52;;;;;;;;;;;;;;;;;;1050703;28;1681;-59
2022/12/13 01:52:23;;;;;;;;;;;;;;;;;;1038779;28;2260;-60
2022/12/13 01:53:00;;;;;;;;;;;;;;;;;;1049760;28;1874;-57
2022/12/13 01:53:32;;;;;;;;;;;;;;;;;;1048244;28;2455;-60
2022/12/13 01:54:04;;;;;;;;;;;;;;;;;;1049581;28;2298;-57
2022/12/13 01:54:38;;;;;;;;;;;;;;;;;;1054536;28;1715;-59
2022/12/13 01:55:08;;;;;;;;;;;;;;;;;;1052202;28;2583;-60
2022/12/13 01:55:41;;;;;;;;;;;;;;;;;;1051407;28;2069;-60
2022/12/13 01:56:24;;;;;;;;;;;;;;;;;;1049546;28;2119;-60
2022/12/13 01:56:56;;;;;;;;;;;;;;;;;;1049677;28;1771;-59
2022/12/13 01:57:27;;;;;;;;;;;;;;;;;;1049097;28;1866;-57
2022/12/13 01:57:59;;;;;;;;;;;;;;;;;;1051231;28;2192;-58
2022/12/13 01:58:30;;;;;;;;;;;;;;;;;;1050618;28;1735;-57
2022/12/13 01:59:01;;;;;;;;;;;;;;;;;;1049444;28;2139;-59
2022/12/13 01:59:32;;;;;;;;;;;;;;;;;;1051678;28;1633;-59
2022/12/13 02:00:05;;;;;;;;;;;;;;;;;;1049763;28;1913;-60
2022/12/13 02:00:35;;;;;;;;;;;;;;;;;;1049623;28;2312;-59
2022/12/13 02:01:05;;;;;;;;;;;;;;;;;;1047413;28;2033;-59
2022/12/13 02:01:36;;;;;;;;;;;;;;;;;;1051070;28;2780;-54
2022/12/13 02:02:08;;;;;;;;;;;;;;;;;;1045690;28;2563;-57
2022/12/13 02:02:39;;;;;;;;;;;;;;;;;;1046848;28;1754;-58
2022/12/13 02:03:09;;;;;;;;;;;;;;;;;;1045180;28;1893;-58
2022/12/13 02:03:39;;;;;;;;;;;;;;;;;;1045584;28;2932;-58
2022/12/13 02:04:10;;;;;;;;;;;;;;;;;;1049912;28;2078;-58
2022/12/13 02:04:47;;;;;;;;;;;;;;;;;;1050145;28;2242;-60
2022/12/13 02:05:30;;;;;;;;;;;;;;;;;;1047879;28;2216;-57
2022/12/13 02:06:06;;;;;;;;;;;;;;;;;;1048030;28;2549;-56
2022/12/13 02:06:42;;;;;;;;;;;;;;;;;;1048212;28;2423;-58
2022/12/13 02:07:14;;;;;;;;;;;;;;;;;;1050977;28;1722;-58
2022/12/13 02:07:45;;;;;;;;;;;;;;;;;;1050663;28;2194;-60
2022/12/13 02:08:18;;;;;;;;;;;;;;;;;;1050097;28;1785;-59
2022/12/13 02:08:48;;;;;;;;;;;;;;;;;;1050407;28;2361;-57
2022/12/13 02:09:19;;;;;;;;;;;;;;;;;;1050426;28;1989;-58
2022/12/13 02:09:51;;;;;;;;;;;;;;;;;;1049960;28;2449;-60
2022/12/13 02:10:22;;;;;;;;;;;;;;;;;;1050703;28;1750;-60
2022/12/13 02:11:05;;;;;;;;;;;;;;;;;;1047606;28;2510;-59
2022/12/13 02:11:43;;;;;;;;;;;;;;;;;;1047858;28;2823;-59
2022/12/13 02:12:14;;;;;;;;;;;;;;;;;;1050861;28;2050;-56
2022/12/13 02:12:44;;;;;;;;;;;;;;;;;;1052054;28;2676;-57
2022/12/13 02:13:14;;;;;;;;;;;;;;;;;;1052276;28;1556;-56
2022/12/13 02:13:44;;;;;;;;;;;;;;;;;;1046963;28;2077;-58
2022/12/13 02:14:15;;;;;;;;;;;;;;;;;;1046444;28;2121;-59
2022/12/13 02:14:45;;;;;;;;;;;;;;;;;;1043663;28;2309;-58
2022/12/13 02:15:16;;;;;;;;;;;;;;;;;;1045424;28;2393;-58
2022/12/13 02:15:56;;;;;;;;;;;;;;;;;;1047144;28;2579;-57
2022/12/13 02:16:29;;;;;;;;;;;;;;;;;;1048912;28;2681;-60
2022/12/13 02:17:22;;;;;;;;;;;;;;;;;;1048880;28;2115;-59
2022/12/13 02:17:55;;;;;;;;;;;;;;;;;;1050339;28;2068;-58
2022/12/13 02:18:25;;;;;;;;;;;;;;;;;;1049658;28;2681;-59
2022/12/13 02:19:09;;;;;;;;;;;;;;;;;;1046480;28;2198;-60
2022/12/13 02:19:58;;;;;;;;;;;;;;;;;;1046927;28;1700;-58
2022/12/13 02:20:46;;;;;;;;;;;;;;;;;;1043811;28;2366;-60
2022/12/13 02:21:17;;;;;;;;;;;;;;;;;;1049700;28;1915;-59
2022/12/13 02:21:59;;;;;;;;;;;;;;;;;;1051063;28;1986;-58
2022/12/13 02:22:41;;;;;;;;;;;;;;;;;;1043451;28;2417;-58
2022/12/13 02:23:11;;;;;;;;;;;;;;;;;;1044571;28;2309;-57
2022/12/13 02:24:01;;;;;;;;;;;;;;;;;;1045574;28;2425;-56
2022/12/13 02:24:51;;;;;;;;;;;;;;;;;;1048127;28;2435;-59
2022/12/13 02:25:21;;;;;;;;;;;;;;;;;;1048542;28;2355;-59
2022/12/13 02:26:03;;;;;;;;;;;;;;;;;;1045905;28;2511;-60
2022/12/13 02:26:46;;;;;;;;;;;;;;;;;;1045051;28;2403;-59
2022/12/13 02:27:35;;;;;;;;;;;;;;;;;;1048355;28;2311;-58
2022/12/13 02:28:24;;;;;;;;;;;;;;;;;;1051101;28;1645;-59
2022/12/13 02:29:08;;;;;;;;;;;;;;;;;;1049533;28;2153;-58
2022/12/13 02:29:57;;;;;;;;;;;;;;;;;;1046200;28;2722;-59
2022/12/13 02:30:36;;;;;;;;;;;;;;;;;;1044786;28;2172;-59
2022/12/13 02:31:15;;;;;;;;;;;;;;;;;;1044229;28;2352;-57
2022/12/13 02:31:59;;;;;;;;;;;;;;;;;;1049954;28;2105;-57
2022/12/13 02:32:42;;;;;;;;;;;;;;;;;;1048551;28;2438;-60
2022/12/13 02:33:21;;;;;;;;;;;;;;;;;;1047386;28;2428;-59
2022/12/13 02:33:57;;;;;;;;;;;;;;;;;;1050323;28;2064;-59
2022/12/13 02:34:39;;;;;;;;;;;;;;;;;;1049147;28;2301;-58
2022/12/13 02:35:24;;;;;;;;;;;;;;;;;;1048602;28;2488;-59
2022/12/13 02:36:03;;;;;;;;;;;;;;;;;;1050058;28;2436;-60
2022/12/13 02:36:34;;;;;;;;;;;;;;;;;;1045491;28;2460;-59
2022/12/13 02:37:25;;;;;;;;;;;;;;;;;;1045814;28;2230;-59
2022/12/13 02:38:04;;;;;;;;;;;;;;;;;;1045425;28;1727;-59
2022/12/13 02:38:38;;;;;;;;;;;;;;;;;;1048664;28;2614;-59
2022/12/13 02:39:08;;;;;;;;;;;;;;;;;;1048274;28;2449;-58
2022/12/13 02:39:42;;;;;;;;;;;;;;;;;;1046269;28;2458;-60
2022/12/13 02:40:19;;;;;;;;;;;;;;;;;;1048023;28;2544;-58
2022/12/13 02:41:07;;;;;;;;;;;;;;;;;;1048655;28;2167;-59
2022/12/13 02:41:41;;;;;;;;;;;;;;;;;;1049550;28;2436;-59
2022/12/13 02:42:20;;;;;;;;;;;;;;;;;;1049218;28;2811;-59
2022/12/13 02:42:58;;;;;;;;;;;;;;;;;;1048894;28;2362;-58
2022/12/13 02:43:31;;;;;;;;;;;;;;;;;;1049922;28;2671;-59
2022/12/13 02:44:07;;;;;;;;;;;;;;;;;;1050048;28;2359;-58
2022/12/13 02:44:52;;;;;;;;;;;;;;;;;;1050137;28;1894;-59
2022/12/13 02:45:26;;;;;;;;;;;;;;;;;;1047603;28;2493;-59
2022/12/13 02:45:58;;;;;;;;;;;;;;;;;;1049868;28;2078;-59
2022/12/13 02:46:31;;;;;;;;;;;;;;;;;;1049259;28;2470;-60
2022/12/13 02:47:05;;;;;;;;;;;;;;;;;;1048992;28;1751;-58
2022/12/13 02:47:36;;;;;;;;;;;;;;;;;;1049864;28;2649;-57
2022/12/13 02:48:09;;;;;;;;;;;;;;;;;;1049288;28;2206;-57
2022/12/13 02:48:40;;;;;;;;;;;;;;;;;;1048768;28;2169;-56
2022/12/13 02:49:11;;;;;;;;;;;;;;;;;;1047632;28;2726;-60
2022/12/13 02:49:45;;;;;;;;;;;;;;;;;;1050551;28;2355;-58
2022/12/13 02:50:16;;;;;;;;;;;;;;;;;;1047505;28;2651;-57
2022/12/13 02:50:47;;;;;;;;;;;;;;;;;;1050909;28;1698;-58
2022/12/13 02:51:18;;;;;;;;;;;;;;;;;;1048139;28;2597;-58
2022/12/13 02:51:50;;;;;;;;;;;;;;;;;;1051007;28;2135;-58
2022/12/13 02:52:23;;;;;;;;;;;;;;;;;;1048166;28;2370;-58
2022/12/13 02:53:01;;;;;;;;;;;;;;;;;;1048567;28;2259;-60
2022/12/13 02:53:32;;;;;;;;;;;;;;;;;;1048241;28;2146;-58
2022/12/13 02:54:03;;;;;;;;;;;;;;;;;;1052021;28;2337;-58
2022/12/13 02:54:34;;;;;;;;;;;;;;;;;;1046829;28;2370;-60
2022/12/13 02:55:05;;;;;;;;;;;;;;;;;;1048941;28;2340;-59
2022/12/13 02:55:39;;;;;;;;;;;;;;;;;;1049655;28;3559;-59
2022/12/13 02:56:10;;;;;;;;;;;;;;;;;;1048941;28;2605;-58
2022/12/13 02:56:40;;;;;;;;;;;;;;;;;;1051193;28;2700;-58
2022/12/13 02:57:30;;;;;;;;;;;;;;;;;;1048997;28;2364;-59
2022/12/13 02:58:00;;;;;;;;;;;;;;;;;;1049322;28;1988;-59
2022/12/13 02:58:32;;;;;;;;;;;;;;;;;;1050394;28;2383;-60
2022/12/13 02:59:07;;;;;;;;;;;;;;;;;;1049534;28;2190;-59
2022/12/13 02:59:38;;;;;;;;;;;;;;;;;;1050198;28;2448;-56
2022/12/13 03:00:09;;;;;;;;;;;;;;;;;;1046686;28;2434;-58
2022/12/13 03:00:45;;;;;;;;;;;;;;;;;;1050864;28;2368;-58
2022/12/13 03:01:23;;;;;;;;;;;;;;;;;;1049367;28;2439;-59
2022/12/13 03:02:06;;;;;;;;;;;;;;;;;;1047754;28;2548;-57
2022/12/13 03:02:59;;;;;;;;;;;;;;;;;;1050051;28;2328;-58
2022/12/13 03:03:48;;;;;;;;;;;;;;;;;;1042841;28;2958;-59
2022/12/13 03:06:28;;;;;;;;;;;;;;;;;;1046781;28;2424;-58
2022/12/13 03:06:50;;;;;;;;;;;;;;;;;;1049230;28;2209;-57
2022/12/13 03:07:25;;;;;;;;;;;;;;;;;;1048429;28;2308;-59
2022/12/13 03:08:08;;;;;;;;;;;;;;;;;;1049060;28;2395;-58
2022/12/13 03:08:44;;;;;;;;;;;;;;;;;;1051255;28;2050;-59
2022/12/13 03:09:24;;;;;;;;;;;;;;;;;;1049546;28;2553;-57
2022/12/13 03:09:58;;;;;;;;;;;;;;;;;;1047423;28;2477;-60
2022/12/13 03:10:30;;;;;;;;;;;;;;;;;;1042822;28;2497;-57
2022/12/13 03:11:16;;;;;;;;;;;;;;;;;;1046029;28;1936;-58
2022/12/13 03:14:04;;;;;;;;;;;;;;;;;;1044951;28;2366;-59
2022/12/13 03:14:36;;;;;;;;;;;;;;;;;;1045933;28;2357;-59
2022/12/13 03:15:17;;;;;;;;;;;;;;;;;;1042238;28;2803;-61
2022/12/13 03:15:58;;;;;;;;;;;;;;;;;;1044146;28;2643;-60
2022/12/13 03:16:33;;;;;;;;;;;;;;;;;;1045241;28;2337;-58
2022/12/13 03:17:04;;;;;;;;;;;;;;;;;;1044499;28;2442;-59
2022/12/13 03:17:37;;;;;;;;;;;;;;;;;;1046318;28;2388;-57
2022/12/13 03:18:16;;;;;;;;;;;;;;;;;;1043260;28;2391;-57
2022/12/13 03:18:47;;;;;;;;;;;;;;;;;;1046130;28;2292;-57
2022/12/13 03:19:18;;;;;;;;;;;;;;;;;;1045390;28;2935;-58
2022/12/13 03:19:50;;;;;;;;;;;;;;;;;;1044281;28;2032;-58
2022/12/13 03:20:22;;;;;;;;;;;;;;;;;;1044622;28;2425;-59
2022/12/13 03:20:58;;;;;;;;;;;;;;;;;;1045707;28;1376;-59
2022/12/13 03:21:28;;;;;;;;;;;;;;;;;;1043719;28;2434;-58
2022/12/13 03:21:59;;;;;;;;;;;;;;;;;;1045920;28;2424;-56
2022/12/13 03:22:32;;;;;;;;;;;;;;;;;;1043980;28;2547;-58
2022/12/13 03:23:02;;;;;;;;;;;;;;;;;;1046267;28;1732;-59
2022/12/13 03:23:33;;;;;;;;;;;;;;;;;;1043543;28;2758;-59
2022/12/13 03:24:03;;;;;;;;;;;;;;;;;;1046288;28;2182;-57
2022/12/13 03:24:33;;;;;;;;;;;;;;;;;;1043697;28;2574;-57
2022/12/13 03:25:04;;;;;;;;;;;;;;;;;;1042090;28;2550;-59
2022/12/13 03:25:34;;;;;;;;;;;;;;;;;;1041108;28;2906;-59
2022/12/13 03:26:13;;;;;;;;;;;;;;;;;;1046255;28;2471;-60
2022/12/13 03:26:44;;;;;;;;;;;;;;;;;;1048728;28;2235;-61
2022/12/13 03:27:14;;;;;;;;;;;;;;;;;;1045261;28;2506;-60
2022/12/13 03:27:44;;;;;;;;;;;;;;;;;;1045509;28;2044;-60
2022/12/13 03:28:14;;;;;;;;;;;;;;;;;;1044872;28;2296;-58
2022/12/13 03:28:45;;;;;;;;;;;;;;;;;;1046128;28;3024;-59
2022/12/13 03:29:15;;;;;;;;;;;;;;;;;;1045705;28;2846;-58
2022/12/13 03:29:46;;;;;;;;;;;;;;;;;;1044238;28;2540;-57
2022/12/13 03:30:16;;;;;;;;;;;;;;;;;;1045074;28;2423;-59
2022/12/13 03:30:46;;;;;;;;;;;;;;;;;;1049680;28;1704;-58
2022/12/13 03:31:17;;;;;;;;;;;;;;;;;;1048773;28;1324;-58
2022/12/13 03:31:47;;;;;;;;;;;;;;;;;;1046954;28;2780;-57
2022/12/13 03:32:17;;;;;;;;;;;;;;;;;;1044553;28;2960;-58
2022/12/13 03:32:47;;;;;;;;;;;;;;;;;;1046075;28;1896;-60
2022/12/13 03:33:17;;;;;;;;;;;;;;;;;;1044355;28;2495;-59
2022/12/13 03:33:48;;;;;;;;;;;;;;;;;;1043829;28;2008;-60
2022/12/13 03:34:18;;;;;;;;;;;;;;;;;;1045454;28;2099;-58
2022/12/13 03:34:48;;;;;;;;;;;;;;;;;;1045541;28;2262;-59
2022/12/13 03:35:19;;;;;;;;;;;;;;;;;;1044628;28;2391;-59
2022/12/13 03:35:49;;;;;;;;;;;;;;;;;;1046072;28;1859;-58
2022/12/13 03:36:20;;;;;;;;;;;;;;;;;;1045382;28;2455;-58
2022/12/13 03:36:51;;;;;;;;;;;;;;;;;;1042432;28;2910;-60
2022/12/13 03:37:21;;;;;;;;;;;;;;;;;;1046347;28;2416;-58
2022/12/13 03:37:51;;;;;;;;;;;;;;;;;;1044276;28;2503;-56
2022/12/13 03:38:28;;;;;;;;;;;;;;;;;;1044362;28;2974;-56
2022/12/13 03:38:59;;;;;;;;;;;;;;;;;;1043985;28;2405;-58
2022/12/13 03:39:29;;;;;;;;;;;;;;;;;;1043400;28;2510;-57
2022/12/13 03:40:00;;;;;;;;;;;;;;;;;;1045219;28;2439;-60
2022/12/13 03:40:31;;;;;;;;;;;;;;;;;;1045535;28;2095;-57
2022/12/13 03:41:16;;;;;;;;;;;;;;;;;;1046438;28;1654;-60
2022/12/13 03:41:46;;;;;;;;;;;;;;;;;;1045013;28;2499;-57
2022/12/13 03:42:17;;;;;;;;;;;;;;;;;;1044821;28;2431;-58
2022/12/13 03:42:47;;;;;;;;;;;;;;;;;;1044658;28;2726;-58
2022/12/13 03:43:17;;;;;;;;;;;;;;;;;;1044577;28;2391;-59
2022/12/13 03:43:48;;;;;;;;;;;;;;;;;;1046796;28;1770;-59
2022/12/13 03:44:18;;;;;;;;;;;;;;;;;;1045207;28;2379;-55
2022/12/13 03:44:48;;;;;;;;;;;;;;;;;;1043731;28;2580;-58
2022/12/13 03:45:19;;;;;;;;;;;;;;;;;;1049515;28;1680;-60
2022/12/13 03:45:50;;;;;;;;;;;;;;;;;;1045959;28;2017;-60
2022/12/13 03:46:20;;;;;;;;;;;;;;;;;;1047417;28;2414;-59
2022/12/13 03:46:51;;;;;;;;;;;;;;;;;;1049489;28;1722;-58
2022/12/13 03:47:22;;;;;;;;;;;;;;;;;;1049192;28;2092;-57
2022/12/13 03:47:52;;;;;;;;;;;;;;;;;;1044857;28;2934;-57
2022/12/13 03:48:22;;;;;;;;;;;;;;;;;;1046591;28;1696;-58
2022/12/13 03:48:53;;;;;;;;;;;;;;;;;;1045840;28;1656;-59
2022/12/13 03:49:23;;;;;;;;;;;;;;;;;;1045838;28;1693;-60
2022/12/13 03:49:54;;;;;;;;;;;;;;;;;;1046068;28;2403;-58
2022/12/13 03:50:24;;;;;;;;;;;;;;;;;;1045388;28;2264;-57
2022/12/13 03:50:55;;;;;;;;;;;;;;;;;;1046975;28;1775;-59
2022/12/13 03:51:25;;;;;;;;;;;;;;;;;;1044804;28;2433;-59
2022/12/13 03:51:55;;;;;;;;;;;;;;;;;;1046231;28;2172;-58
2022/12/13 03:52:26;;;;;;;;;;;;;;;;;;1048007;28;1710;-58
2022/12/13 03:52:59;;;;;;;;;;;;;;;;;;1046709;28;1817;-59